Time;durP1;ratioP1;P1;durP2;ratioP2;P2;SDS_P1;SDS_P2;PMS_P1;PMS_P2;Temp;Humidity;BMP_temperature;BMP_pressure;BME280_temperature;BME280_humidity;BME280_pressure;Samples;Min_cycle;Max_cycle;Signal;HPM_P1;HPM_P2
2022/01/26 00:06:47;;;;;;;19.63;6.53;;;;;;;;;;5021881;28;20032;-51
2022/01/26 00:09:14;;;;;;;19.42;7.63;;;;;;;;;;5031673;28;20033;-49
2022/01/26 00:11:40;;;;;;;20.85;8.20;;;;;;;;;;5031007;28;20049;-50
2022/01/26 00:14:10;;;;;;;20.70;8.23;;;;;;;;;;5031884;28;20029;-54
2022/01/26 00:16:39;;;;;;;21.88;8.15;;;;;;;;;;5031724;28;20037;-53
2022/01/26 00:19:07;;;;;;;23.50;8.23;;;;;;;;;;5028356;28;20032;-53
2022/01/26 00:21:42;;;;;;;26.42;8.48;;;;;;;;;;5028922;28;20026;-52
2022/01/26 00:24:26;;;;;;;25.70;8.32;;;;;;;;;;5031501;28;20057;-52
2022/01/26 00:29:20;;;;;;;23.92;8.40;;;;;;;;;;5031593;28;20072;-49
2022/01/26 00:40:06;;;;;;;23.92;8.70;;;;;;;;;;5027330;28;20037;-53
2022/01/26 00:42:37;;;;;;;22.75;8.48;;;;;;;;;;5024491;28;20121;-50
2022/01/26 00:45:04;;;;;;;25.65;7.78;;;;;;;;;;5019270;28;20022;-50
2022/01/26 00:47:30;;;;;;;24.20;7.95;;;;;;;;;;5031256;28;20026;-49
2022/01/26 00:50:02;;;;;;;24.38;8.52;;;;;;;;;;5025854;28;20054;-51
2022/01/26 00:52:39;;;;;;;24.00;8.40;;;;;;;;;;5026522;28;20025;-53
2022/01/26 00:55:06;;;;;;;21.55;8.65;;;;;;;;;;5031259;28;20695;-51
2022/01/26 00:57:32;;;;;;;21.52;8.30;;;;;;;;;;5031302;28;20125;-50
2022/01/26 00:59:59;;;;;;;23.83;7.80;;;;;;;;;;5030039;28;20103;-49
2022/01/26 01:02:26;;;;;;;24.95;7.55;;;;;;;;;;5032814;28;20034;-49
2022/01/26 01:04:52;;;;;;;24.30;8.20;;;;;;;;;;5034675;28;20021;-52
2022/01/26 01:07:21;;;;;;;26.92;8.15;;;;;;;;;;5035217;28;20393;-50
2022/01/26 01:09:47;;;;;;;28.70;8.70;;;;;;;;;;5034758;28;20024;-49
2022/01/26 01:12:14;;;;;;;20.58;7.93;;;;;;;;;;5035751;28;20033;-50
2022/01/26 01:14:42;;;;;;;22.45;8.68;;;;;;;;;;5034704;28;20040;-54
2022/01/26 01:17:11;;;;;;;22.45;7.57;;;;;;;;;;5034832;28;20037;-55
2022/01/26 01:19:43;;;;;;;21.40;7.10;;;;;;;;;;5033984;28;20037;-53
2022/01/26 01:25:23;;;;;;;23.63;7.75;;;;;;;;;;5029308;28;20029;-54
2022/01/26 01:33:47;;;;;;;17.63;7.25;;;;;;;;;;5028596;28;20103;-50
2022/01/26 01:35:41;;;;;;;21.20;7.75;;;;;;;;;;5027294;28;20132;-51
2022/01/26 01:38:10;;;;;;;22.67;8.25;;;;;;;;;;5036577;28;20026;-52
2022/01/26 01:40:37;;;;;;;22.10;7.70;;;;;;;;;;5026033;28;20044;-53
2022/01/26 01:43:03;;;;;;;23.88;7.07;;;;;;;;;;5032571;28;20115;-50
2022/01/26 01:45:31;;;;;;;16.73;7.78;;;;;;;;;;5025825;28;20441;-53
2022/01/26 01:47:57;;;;;;;20.92;8.20;;;;;;;;;;5029037;28;20462;-55
2022/01/26 01:50:23;;;;;;;18.27;7.28;;;;;;;;;;5021822;28;20040;-50
2022/01/26 01:52:49;;;;;;;20.85;6.50;;;;;;;;;;5032328;28;20432;-52
2022/01/26 01:55:16;;;;;;;17.80;7.32;;;;;;;;;;5033632;28;20029;-52
2022/01/26 01:57:42;;;;;;;21.42;8.10;;;;;;;;;;5033956;28;20025;-52
2022/01/26 02:00:08;;;;;;;28.05;8.68;;;;;;;;;;5034119;28;20032;-55
2022/01/26 02:02:35;;;;;;;19.65;7.65;;;;;;;;;;5020804;28;20025;-51
2022/01/26 02:05:02;;;;;;;21.77;7.15;;;;;;;;;;5025277;28;20425;-54
2022/01/26 02:07:28;;;;;;;19.00;6.57;;;;;;;;;;5032604;28;20029;-55
2022/01/26 02:09:54;;;;;;;21.13;7.53;;;;;;;;;;5033566;28;20087;-50
2022/01/26 02:12:23;;;;;;;22.35;7.35;;;;;;;;;;5032239;28;20028;-53
2022/01/26 02:14:54;;;;;;;22.48;7.45;;;;;;;;;;5027983;28;20029;-55
2022/01/26 02:17:37;;;;;;;23.58;7.80;;;;;;;;;;5033448;28;20056;-52
2022/01/26 02:20:41;;;;;;;19.20;7.40;;;;;;;;;;5032736;28;20022;-53
2022/01/26 02:53:46;;;;;;;21.40;7.65;;;;;;;;;;5032852;28;20072;-55
2022/01/26 02:56:29;;;;;;;22.75;8.48;;;;;;;;;;5032615;28;20048;-52
2022/01/26 02:59:25;;;;;;;19.75;7.68;;;;;;;;;;5032251;28;20033;-54
2022/01/26 03:01:57;;;;;;;22.20;7.60;;;;;;;;;;5031679;28;20033;-54
2022/01/26 03:07:12;;;;;;;22.42;7.35;;;;;;;;;;5032913;28;19924;-51
2022/01/26 03:09:50;;;;;;;27.35;8.63;;;;;;;;;;5032584;28;20036;-54
2022/01/26 03:12:27;;;;;;;23.48;8.30;;;;;;;;;;5025488;28;20041;-53
2022/01/26 03:14:58;;;;;;;26.65;9.20;;;;;;;;;;5020836;28;20034;-55
2022/01/26 03:19:57;;;;;;;21.63;7.93;;;;;;;;;;5032281;28;20052;-52
2022/01/26 03:30:30;;;;;;;22.60;9.02;;;;;;;;;;5031069;28;20047;-51
2022/01/26 03:33:11;;;;;;;21.98;8.70;;;;;;;;;;5024757;28;20032;-52
2022/01/26 03:35:48;;;;;;;30.48;8.77;;;;;;;;;;5025543;28;20049;-52
2022/01/26 03:38:22;;;;;;;28.50;9.77;;;;;;;;;;5030290;28;20056;-50
2022/01/26 03:40:58;;;;;;;24.17;8.75;;;;;;;;;;5028456;28;20374;-51
2022/01/26 03:43:24;;;;;;;27.30;9.93;;;;;;;;;;5032241;28;20036;-52
2022/01/26 03:45:50;;;;;;;30.45;11.60;;;;;;;;;;5031897;28;20037;-50
2022/01/26 03:48:16;;;;;;;26.88;8.98;;;;;;;;;;5032133;28;20481;-53
2022/01/26 03:50:42;;;;;;;23.98;9.20;;;;;;;;;;5028788;28;20124;-53
2022/01/26 03:53:08;;;;;;;25.42;9.80;;;;;;;;;;5031512;28;20033;-52
2022/01/26 03:55:34;;;;;;;28.40;8.93;;;;;;;;;;5025171;28;20054;-53
2022/01/26 03:58:00;;;;;;;30.70;8.68;;;;;;;;;;5032226;28;20021;-53
2022/01/26 04:00:26;;;;;;;31.55;10.43;;;;;;;;;;5032007;28;20026;-49
2022/01/26 04:02:52;;;;;;;29.17;9.40;;;;;;;;;;5020462;28;20112;-50
2022/01/26 04:05:18;;;;;;;29.85;9.77;;;;;;;;;;5031658;28;20080;-49
2022/01/26 04:07:45;;;;;;;34.42;10.35;;;;;;;;;;5031606;28;20033;-49
2022/01/26 04:10:28;;;;;;;28.48;9.70;;;;;;;;;;5026309;28;20041;-49
2022/01/26 04:12:54;;;;;;;;;;;;;;;;;;5024965;28;20026;-51
2022/01/26 04:15:30;;;;;;;22.90;8.82;;;;;;;;;;5028807;28;19936;-52
2022/01/26 04:17:57;;;;;;;20.98;8.43;;;;;;;;;;5031580;28;20421;-53
2022/01/26 04:20:27;;;;;;;20.35;8.30;;;;;;;;;;5031408;28;20068;-53
2022/01/26 04:23:07;;;;;;;18.77;6.40;;;;;;;;;;5022197;28;20030;-50
2022/01/26 04:25:34;;;;;;;15.75;5.85;;;;;;;;;;5031183;28;20351;-51
2022/01/26 04:28:05;;;;;;;16.88;8.13;;;;;;;;;;5031646;28;20021;-51
2022/01/26 04:30:32;;;;;;;18.63;6.32;;;;;;;;;;5031334;28;20082;-56
2022/01/26 04:33:03;;;;;;;15.88;6.32;;;;;;;;;;5018861;28;20108;-52
2022/01/26 04:35:29;;;;;;;21.48;6.68;;;;;;;;;;5029166;28;20045;-52
2022/01/26 04:40:21;;;;;;;16.15;6.22;;;;;;;;;;5035453;28;20136;-52
2022/01/26 04:45:16;;;;;;;15.05;5.45;;;;;;;;;;5035356;28;20528;-56
2022/01/26 04:47:42;;;;;;;19.30;6.47;;;;;;;;;;5035153;28;20033;-51
2022/01/26 04:50:09;;;;;;;15.95;5.85;;;;;;;;;;5035303;28;20025;-50
2022/01/26 04:52:35;;;;;;;13.55;4.88;;;;;;;;;;5022785;28;20053;-50
2022/01/26 04:55:01;;;;;;;14.02;5.53;;;;;;;;;;5035183;28;20429;-50
2022/01/26 04:57:27;;;;;;;16.15;4.68;;;;;;;;;;5034810;28;20033;-52
2022/01/26 04:59:53;;;;;;;11.65;5.18;;;;;;;;;;5035070;28;20029;-50
2022/01/26 05:02:19;;;;;;;13.20;5.30;;;;;;;;;;5026338;28;20104;-54
2022/01/26 05:04:45;;;;;;;14.70;5.20;;;;;;;;;;5034972;28;20378;-54
2022/01/26 05:07:10;;;;;;;17.45;5.53;;;;;;;;;;5032786;28;20100;-53
2022/01/26 05:09:36;;;;;;;17.33;5.68;;;;;;;;;;5034779;28;20033;-55
2022/01/26 05:12:03;;;;;;;15.15;5.85;;;;;;;;;;5033775;28;20022;-54
2022/01/26 05:14:29;;;;;;;18.38;6.07;;;;;;;;;;5030337;28;20160;-53
2022/01/26 05:16:55;;;;;;;19.92;5.85;;;;;;;;;;5032363;28;20063;-49
2022/01/26 05:19:21;;;;;;;12.43;5.30;;;;;;;;;;5034275;28;20053;-55
2022/01/26 05:21:47;;;;;;;21.77;6.70;;;;;;;;;;5020990;28;20025;-55
2022/01/26 05:24:13;;;;;;;16.42;6.25;;;;;;;;;;5025663;28;20037;-53
2022/01/26 05:26:40;;;;;;;19.92;6.22;;;;;;;;;;5034464;28;20030;-49
2022/01/26 05:29:06;;;;;;;17.83;5.68;;;;;;;;;;5024251;28;20026;-51
2022/01/26 05:31:32;;;;;;;23.08;7.00;;;;;;;;;;5032126;28;20026;-51
2022/01/26 05:33:59;;;;;;;18.90;6.50;;;;;;;;;;5034438;28;20462;-54
2022/01/26 05:36:25;;;;;;;22.67;7.22;;;;;;;;;;5032820;28;20107;-54
2022/01/26 05:38:51;;;;;;;17.77;6.57;;;;;;;;;;5026824;28;20025;-55
2022/01/26 05:41:17;;;;;;;21.15;7.45;;;;;;;;;;5030953;28;20381;-53
2022/01/26 05:43:43;;;;;;;24.80;7.68;;;;;;;;;;5034547;28;20147;-54
2022/01/26 05:46:15;;;;;;;22.25;7.32;;;;;;;;;;5031804;28;20060;-55
2022/01/26 05:48:46;;;;;;;20.90;6.95;;;;;;;;;;5030938;28;20029;-54
2022/01/26 05:51:13;;;;;;;22.45;7.13;;;;;;;;;;5030197;28;20029;-53
2022/01/26 05:53:40;;;;;;;23.17;7.63;;;;;;;;;;5033194;28;20026;-51
2022/01/26 05:56:06;;;;;;;22.38;7.50;;;;;;;;;;5028554;28;20037;-49
2022/01/26 05:58:32;;;;;;;21.27;6.43;;;;;;;;;;5032247;28;20029;-52
2022/01/26 06:01:00;;;;;;;21.38;7.68;;;;;;;;;;5025652;28;20030;-55
2022/01/26 06:03:26;;;;;;;21.05;5.95;;;;;;;;;;5044461;28;20032;-52
2022/01/26 06:05:54;;;;;;;26.25;7.00;;;;;;;;;;5024614;28;20038;-54
2022/01/26 06:08:20;;;;;;;21.30;7.40;;;;;;;;;;5038052;28;20462;-54
2022/01/26 06:10:46;;;;;;;26.13;8.63;;;;;;;;;;5024001;28;20076;-52
2022/01/26 06:13:12;;;;;;;26.33;7.75;;;;;;;;;;5035486;28;20462;-50
2022/01/26 06:15:38;;;;;;;23.90;8.40;;;;;;;;;;5033096;28;20033;-54
2022/01/26 06:18:04;;;;;;;22.50;7.15;;;;;;;;;;5022690;28;20096;-55
2022/01/26 06:20:30;;;;;;;21.85;7.15;;;;;;;;;;5027620;28;20026;-49
2022/01/26 06:22:56;;;;;;;18.23;6.97;;;;;;;;;;5028594;28;20025;-53
2022/01/26 06:25:22;;;;;;;22.70;7.25;;;;;;;;;;5033090;28;20053;-51
2022/01/26 06:27:51;;;;;;;21.50;7.22;;;;;;;;;;5024041;28;20026;-52
2022/01/26 06:30:17;;;;;;;24.55;8.10;;;;;;;;;;5036261;28;20486;-53
2022/01/26 06:32:43;;;;;;;27.83;7.55;;;;;;;;;;5031802;28;20033;-50
2022/01/26 06:35:11;;;;;;;17.42;6.97;;;;;;;;;;5029829;28;20465;-49
2022/01/26 06:37:37;;;;;;;22.58;7.30;;;;;;;;;;5034106;28;20108;-52
2022/01/26 06:40:03;;;;;;;23.13;6.45;;;;;;;;;;5019392;28;20482;-53
2022/01/26 06:42:36;;;;;;;29.50;8.13;;;;;;;;;;5026454;28;20112;-54
2022/01/26 06:47:48;;;;;;;21.55;7.18;;;;;;;;;;5027885;28;20040;-50
2022/01/26 06:50:14;;;;;;;26.85;7.57;;;;;;;;;;5024127;28;20541;-50
2022/01/26 06:52:43;;;;;;;23.30;7.55;;;;;;;;;;5029740;28;20473;-53
2022/01/26 06:55:09;;;;;;;23.27;8.20;;;;;;;;;;5033005;28;20033;-55
2022/01/26 06:57:35;;;;;;;24.38;8.25;;;;;;;;;;5031176;28;20465;-53
2022/01/26 07:00:01;;;;;;;25.65;7.97;;;;;;;;;;5033182;28;20034;-53
2022/01/26 07:02:27;;;;;;;26.70;8.00;;;;;;;;;;5032739;28;20038;-52
2022/01/26 07:04:53;;;;;;;26.35;8.02;;;;;;;;;;5025448;28;20639;-54
2022/01/26 07:07:19;;;;;;;25.33;7.88;;;;;;;;;;5030298;28;20416;-51
2022/01/26 07:09:45;;;;;;;24.15;8.02;;;;;;;;;;5032639;28;20063;-55
2022/01/26 07:12:11;;;;;;;30.58;8.57;;;;;;;;;;5025549;28;20025;-55
2022/01/26 07:22:39;;;;;;;28.20;8.20;;;;;;;;;;5028674;28;20044;-52
2022/01/26 07:25:05;;;;;;;21.45;7.60;;;;;;;;;;5031466;28;20022;-54
2022/01/26 07:27:31;;;;;;;24.17;7.65;;;;;;;;;;5032612;28;20041;-54
2022/01/26 07:29:59;;;;;;;25.42;7.80;;;;;;;;;;5028627;28;20029;-52
2022/01/26 07:32:26;;;;;;;26.40;8.60;;;;;;;;;;5027813;28;20029;-53
2022/01/26 07:34:52;;;;;;;25.65;8.60;;;;;;;;;;5036769;28;20067;-51
2022/01/26 07:37:20;;;;;;;22.13;8.13;;;;;;;;;;5028072;28;20057;-52
2022/01/26 07:40:01;;;;;;;24.23;8.88;;;;;;;;;;5032158;28;20458;-51
2022/01/26 07:42:27;;;;;;;25.05;8.98;;;;;;;;;;5013106;28;20393;-50
2022/01/26 07:44:53;;;;;;;27.30;7.85;;;;;;;;;;5031398;28;20104;-52
2022/01/26 07:47:19;;;;;;;25.08;6.82;;;;;;;;;;5032220;28;20021;-54
2022/01/26 07:49:45;;;;;;;23.20;7.97;;;;;;;;;;5032249;28;20048;-52
2022/01/26 07:52:15;;;;;;;24.80;8.25;;;;;;;;;;5031352;28;20033;-51
2022/01/26 07:54:41;;;;;;;28.60;8.68;;;;;;;;;;5031503;28;20382;-51
2022/01/26 07:57:07;;;;;;;21.58;7.50;;;;;;;;;;5030004;28;20516;-50
2022/01/26 07:59:33;;;;;;;25.00;8.20;;;;;;;;;;5019016;28;20018;-50
2022/01/26 08:01:59;;;;;;;19.58;8.07;;;;;;;;;;5031698;28;20022;-51
2022/01/26 08:04:25;;;;;;;20.90;8.23;;;;;;;;;;5024623;28;20034;-51
2022/01/26 08:06:51;;;;;;;26.20;8.68;;;;;;;;;;5025590;28;20021;-50
2022/01/26 08:09:17;;;;;;;30.90;8.88;;;;;;;;;;5031245;28;20562;-53
2022/01/26 08:11:43;;;;;;;22.58;8.15;;;;;;;;;;5033675;28;20032;-49
2022/01/26 08:14:09;;;;;;;23.88;7.78;;;;;;;;;;5030037;28;20029;-55
2022/01/26 08:16:36;;;;;;;23.15;8.60;;;;;;;;;;5031755;28;20108;-56
2022/01/26 08:19:03;;;;;;;25.67;8.05;;;;;;;;;;5026009;28;20026;-55
2022/01/26 08:21:29;;;;;;;24.58;8.35;;;;;;;;;;5020371;28;20049;-54
2022/01/26 08:24:02;;;;;;;22.00;7.25;;;;;;;;;;5030386;28;20528;-53
2022/01/26 08:26:37;;;;;;;;;;;;;;;;;;5026585;28;20727;-56
2022/01/26 08:29:07;;;;;;;25.85;7.43;;;;;;;;;;5024011;28;20535;-54
2022/01/26 08:31:33;;;;;;;22.67;7.55;;;;;;;;;;5031374;28;20033;-55
2022/01/26 08:33:58;;;;;;;25.25;8.48;;;;;;;;;;5031536;28;20042;-52
2022/01/26 08:36:24;;;;;;;21.85;8.55;;;;;;;;;;5032673;28;20111;-55
2022/01/26 08:38:50;;;;;;;22.13;7.85;;;;;;;;;;5030204;28;20026;-51
2022/01/26 08:41:16;;;;;;;23.30;7.47;;;;;;;;;;5029451;28;20033;-52
2022/01/26 08:43:42;;;;;;;23.08;7.65;;;;;;;;;;5031740;28;20033;-52
2022/01/26 08:46:08;;;;;;;30.60;8.20;;;;;;;;;;5026342;28;20029;-54
2022/01/26 08:48:34;;;;;;;18.40;7.78;;;;;;;;;;5030947;28;20488;-50
2022/01/26 08:51:00;;;;;;;22.13;7.15;;;;;;;;;;5030335;28;20030;-52
2022/01/26 08:53:26;;;;;;;20.50;7.32;;;;;;;;;;5026957;28;20029;-51
2022/01/26 08:55:52;;;;;;;17.67;7.13;;;;;;;;;;5027833;28;20108;-52
2022/01/26 08:58:21;;;;;;;18.70;7.57;;;;;;;;;;5029824;28;20022;-51
2022/01/26 09:00:47;;;;;;;22.63;7.65;;;;;;;;;;5021893;28;20026;-53
2022/01/26 09:03:13;;;;;;;21.42;7.57;;;;;;;;;;5025329;28;20025;-51
2022/01/26 09:05:39;;;;;;;17.65;6.68;;;;;;;;;;5025782;28;20025;-54
2022/01/26 09:08:06;;;;;;;17.40;6.00;;;;;;;;;;5031544;28;20033;-53
2022/01/26 09:10:33;;;;;;;15.05;6.03;;;;;;;;;;5028869;28;20034;-52
2022/01/26 09:13:00;;;;;;;18.88;7.35;;;;;;;;;;5027877;28;20038;-53
2022/01/26 09:15:29;;;;;;;19.08;6.03;;;;;;;;;;5017194;28;20044;-50
2022/01/26 09:18:00;;;;;;;18.55;6.75;;;;;;;;;;5031389;28;20392;-51
2022/01/26 09:20:26;;;;;;;16.63;6.03;;;;;;;;;;5027090;28;20018;-54
2022/01/26 09:22:52;;;;;;;18.35;6.13;;;;;;;;;;5030457;28;20100;-50
2022/01/26 09:25:18;;;;;;;16.60;5.65;;;;;;;;;;5028353;28;20025;-54
2022/01/26 09:27:44;;;;;;;16.65;6.50;;;;;;;;;;5026771;28;20433;-52
2022/01/26 09:30:10;;;;;;;14.98;5.90;;;;;;;;;;5034179;28;20702;-54
2022/01/26 09:32:37;;;;;;;19.20;6.53;;;;;;;;;;5034101;28;20402;-54
2022/01/26 09:35:04;;;;;;;14.27;5.60;;;;;;;;;;5020640;28;20501;-50
2022/01/26 09:37:30;;;;;;;18.35;6.28;;;;;;;;;;5037272;28;20040;-55
2022/01/26 09:39:56;;;;;;;14.30;6.25;;;;;;;;;;5035348;28;20021;-56
2022/01/26 09:42:23;;;;;;;16.38;7.25;;;;;;;;;;5019068;28;20030;-55
2022/01/26 09:44:49;;;;;;;19.98;6.18;;;;;;;;;;5033779;28;20428;-55
2022/01/26 09:47:15;;;;;;;18.02;6.22;;;;;;;;;;5023910;28;20030;-54
2022/01/26 09:49:41;;;;;;;14.68;6.30;;;;;;;;;;5021216;28;20485;-53
2022/01/26 09:52:14;;;;;;;17.55;6.15;;;;;;;;;;5026541;28;20022;-50
2022/01/26 09:54:41;;;;;;;16.45;6.43;;;;;;;;;;5021404;28;20034;-50
2022/01/26 09:57:07;;;;;;;17.20;6.78;;;;;;;;;;5024778;28;20034;-52
2022/01/26 09:59:33;;;;;;;15.82;6.32;;;;;;;;;;5024065;28;20053;-51
2022/01/26 10:01:59;;;;;;;20.33;6.78;;;;;;;;;;5032752;28;20668;-50
2022/01/26 10:04:37;;;;;;;17.55;6.28;;;;;;;;;;5031123;28;20017;-49
2022/01/26 10:07:09;;;;;;;13.63;6.13;;;;;;;;;;5026286;28;20033;-51
2022/01/26 10:15:35;;;;;;;14.98;6.47;;;;;;;;;;5030744;28;20095;-53
2022/01/26 10:17:42;;;;;;;12.10;4.53;;;;;;;;;;5023050;28;20057;-54
2022/01/26 10:20:09;;;;;;;13.18;5.82;;;;;;;;;;5019029;28;20056;-49
2022/01/26 10:22:36;;;;;;;16.17;5.72;;;;;;;;;;5016046;28;20029;-50
2022/01/26 10:25:12;;;;;;;14.77;6.20;;;;;;;;;;5028344;28;20043;-51
2022/01/26 10:27:40;;;;;;;16.52;6.40;;;;;;;;;;5024371;28;20056;-49
2022/01/26 10:30:07;;;;;;;15.68;5.35;;;;;;;;;;5024761;28;20033;-55
2022/01/26 10:32:34;;;;;;;12.77;5.53;;;;;;;;;;5031009;28;20040;-52
2022/01/26 10:35:04;;;;;;;18.20;5.97;;;;;;;;;;5028179;28;20041;-52
2022/01/26 10:37:30;;;;;;;12.35;4.95;;;;;;;;;;5037600;28;20033;-53
2022/01/26 10:40:10;;;;;;;16.17;6.10;;;;;;;;;;5029250;28;20032;-54
2022/01/26 10:42:36;;;;;;;12.43;5.28;;;;;;;;;;5020649;28;20083;-51
2022/01/26 10:45:13;;;;;;;14.07;5.40;;;;;;;;;;5028441;28;20473;-53
2022/01/26 10:47:45;;;;;;;11.98;4.88;;;;;;;;;;5027358;28;20497;-53
2022/01/26 10:50:43;;;;;;;14.48;5.18;;;;;;;;;;5031745;28;20080;-53
2022/01/26 10:53:15;;;;;;;12.85;5.47;;;;;;;;;;5030826;28;20032;-53
2022/01/26 10:55:41;;;;;;;7.10;2.65;;;;;;;;;;5028372;28;20076;-51
2022/01/26 10:58:08;;;;;;;9.63;4.20;;;;;;;;;;5028546;28;20024;-51
2022/01/26 11:00:36;;;;;;;7.40;3.58;;;;;;;;;;5027000;28;20108;-50
2022/01/26 11:03:02;;;;;;;9.85;3.88;;;;;;;;;;5032577;28;20049;-52
2022/01/26 11:05:28;;;;;;;9.50;3.97;;;;;;;;;;5022520;28;20099;-55
2022/01/26 11:07:56;;;;;;;11.60;4.22;;;;;;;;;;5017077;28;20061;-51
2022/01/26 11:10:30;;;;;;;8.45;3.17;;;;;;;;;;5023943;28;20017;-54
2022/01/26 11:12:56;;;;;;;8.00;3.47;;;;;;;;;;5020957;28;20022;-56
2022/01/26 11:15:23;;;;;;;7.20;3.33;;;;;;;;;;5021932;28;20588;-52
2022/01/26 11:17:51;;;;;;;8.10;3.78;;;;;;;;;;5025919;28;20065;-54
2022/01/26 11:20:20;;;;;;;11.23;4.15;;;;;;;;;;5032089;28;20033;-49
2022/01/26 11:22:50;;;;;;;7.40;2.92;;;;;;;;;;5031388;28;20025;-49
2022/01/26 11:25:16;;;;;;;8.13;3.38;;;;;;;;;;5032039;28;20835;-49
2022/01/26 11:27:42;;;;;;;7.55;3.40;;;;;;;;;;5027383;28;20705;-53
2022/01/26 11:30:19;;;;;;;8.82;4.00;;;;;;;;;;5030366;28;20036;-48
2022/01/26 11:32:54;;;;;;;11.13;4.60;;;;;;;;;;5024012;28;20021;-48
2022/01/26 11:35:21;;;;;;;11.32;4.18;;;;;;;;;;5030831;28;20049;-48
2022/01/26 11:37:52;;;;;;;8.98;3.17;;;;;;;;;;5029159;28;20041;-48
2022/01/26 11:46:08;;;;;;;9.43;4.30;;;;;;;;;;5025841;28;20052;-50
2022/01/26 11:48:34;;;;;;;12.93;4.78;;;;;;;;;;5030682;28;20048;-48
2022/01/26 11:51:01;;;;;;;13.93;4.78;;;;;;;;;;5031431;28;20592;-48
2022/01/26 11:53:27;;;;;;;13.57;3.63;;;;;;;;;;5027679;28;20080;-50
2022/01/26 11:56:02;;;;;;;10.30;4.22;;;;;;;;;;5030104;28;20359;-51
2022/01/26 11:58:32;;;;;;;8.55;3.72;;;;;;;;;;5021788;28;20095;-48
2022/01/26 12:01:24;;;;;;;10.85;4.78;;;;;;;;;;5017804;28;20496;-52
2022/01/26 12:04:01;;;;;;;11.20;4.35;;;;;;;;;;5020311;28;20461;-51
2022/01/26 12:06:28;;;;;;;9.15;4.22;;;;;;;;;;5022667;28;20163;-49
2022/01/26 12:08:56;;;;;;;8.35;4.18;;;;;;;;;;5018734;28;20098;-50
2022/01/26 12:11:23;;;;;;;12.73;4.72;;;;;;;;;;5017169;28;20033;-49
2022/01/26 12:13:51;;;;;;;13.05;3.85;;;;;;;;;;5033263;28;20389;-50
2022/01/26 12:16:22;;;;;;;11.93;4.10;;;;;;;;;;5030336;28;20021;-52
2022/01/26 12:19:21;;;;;;;13.50;4.53;;;;;;;;;;5028617;28;20025;-49
2022/01/26 12:35:52;;;;;;;16.15;5.20;;;;;;;;;;5027996;28;20494;-52
2022/01/26 12:38:25;;;;;;;16.95;5.90;;;;;;;;;;5028776;28;20025;-50
2022/01/26 12:43:39;;;;;;;17.38;5.15;;;;;;;;;;5022108;28;20036;-50
2022/01/26 12:46:07;;;;;;;13.82;5.00;;;;;;;;;;5016819;28;20141;-48
2022/01/26 12:48:34;;;;;;;18.27;5.97;;;;;;;;;;5025541;28;20029;-52
2022/01/26 12:51:02;;;;;;;17.55;5.15;;;;;;;;;;5021284;28;20036;-50
2022/01/26 12:53:29;;;;;;;14.40;5.28;;;;;;;;;;5023054;28;20382;-49
2022/01/26 12:55:56;;;;;;;20.48;6.13;;;;;;;;;;5023156;28;20033;-50
2022/01/26 12:58:29;;;;;;;20.25;6.57;;;;;;;;;;5025997;28;20034;-50
2022/01/26 13:00:59;;;;;;;15.48;5.20;;;;;;;;;;5024606;28;20025;-52
2022/01/26 13:03:28;;;;;;;16.75;6.72;;;;;;;;;;5028319;28;20086;-48
2022/01/26 13:06:04;;;;;;;21.85;7.32;;;;;;;;;;5034170;28;20083;-50
2022/01/26 13:08:39;;;;;;;21.33;7.45;;;;;;;;;;5026872;28;20022;-49
2022/01/26 13:11:05;;;;;;;25.83;6.85;;;;;;;;;;5034081;28;20032;-48
2022/01/26 13:13:33;;;;;;;28.40;7.68;;;;;;;;;;5029937;28;20461;-50
2022/01/26 13:16:12;;;;;;;23.02;7.53;;;;;;;;;;5021961;28;20025;-48
2022/01/26 13:21:19;;;;;;;27.42;7.90;;;;;;;;;;5024565;28;20044;-49
2022/01/26 13:24:05;;;;;;;32.38;7.47;;;;;;;;;;5025301;28;20037;-49
2022/01/26 13:26:48;;;;;;;29.88;8.75;;;;;;;;;;5026018;28;20033;-49
2022/01/26 13:29:39;;;;;;;;;;;;;;;;;;5034054;28;20036;-49
2022/01/26 13:32:37;;;;;;;30.50;9.50;;;;;;;;;;5028687;28;20258;-50
2022/01/26 13:37:58;;;;;;;34.25;7.60;;;;;;;;;;5018668;28;20494;-49
2022/01/26 13:40:41;;;;;;;29.25;8.10;;;;;;;;;;5017684;28;20761;-50
2022/01/26 13:54:29;;;;;;;28.92;8.30;;;;;;;;;;5031142;28;20040;-49
2022/01/26 13:57:42;;;;;;;29.45;8.73;;;;;;;;;;5030872;28;20018;-49
2022/01/26 13:59:50;;;;;;;27.45;8.32;;;;;;;;;;5025172;28;20148;-48
2022/01/26 14:02:16;;;;;;;28.48;8.32;;;;;;;;;;5030905;28;20478;-52
2022/01/26 14:04:42;;;;;;;23.45;6.47;;;;;;;;;;5034607;28;20029;-49
2022/01/26 14:07:08;;;;;;;31.90;6.82;;;;;;;;;;5032023;28;20133;-50
2022/01/26 14:09:34;;;;;;;24.00;6.55;;;;;;;;;;5032667;28;20037;-50
2022/01/26 14:12:01;;;;;;;27.92;7.68;;;;;;;;;;5018511;28;21297;-49
2022/01/26 14:14:41;;;;;;;34.60;7.97;;;;;;;;;;5025584;28;20421;-50
2022/01/26 14:17:14;;;;;;;29.42;7.50;;;;;;;;;;5030154;28;20056;-50
2022/01/26 14:22:38;;;;;;;33.05;10.77;;;;;;;;;;5026615;28;20036;-50
2022/01/26 14:27:41;;;;;;;44.30;11.40;;;;;;;;;;5024516;28;20037;-49
2022/01/26 14:35:42;;;;;;;39.97;10.65;;;;;;;;;;5027415;28;20406;-51
2022/01/26 14:53:11;;;;;;;42.05;10.32;;;;;;;;;;5031895;28;20060;-49
2022/01/26 15:19:13;;;;;;;31.85;9.77;;;;;;;;;;5024443;28;20116;-49
2022/01/26 15:21:36;;;;;;;28.60;8.68;;;;;;;;;;5026736;28;20033;-51
2022/01/26 15:29:58;;;;;;;44.60;10.55;;;;;;;;;;5026744;28;20038;-49
2022/01/26 15:34:01;;;;;;;39.42;10.45;;;;;;;;;;5030109;28;20029;-54
2022/01/26 15:44:47;;;;;;;44.03;12.10;;;;;;;;;;5023361;28;20072;-51
2022/01/26 15:50:08;;;;;;;45.05;13.05;;;;;;;;;;5018977;28;20059;-51
2022/01/26 15:58:31;;;;;;;58.97;13.75;;;;;;;;;;5022209;28;20508;-49
2022/01/26 16:06:46;;;;;;;55.08;15.00;;;;;;;;;;5021593;28;20542;-50
2022/01/26 16:12:42;;;;;;;60.83;14.77;;;;;;;;;;5021356;28;20049;-48
2022/01/26 16:35:09;;;;;;;75.90;17.40;;;;;;;;;;5021782;28;20040;-50
2022/01/26 16:37:40;;;;;;;81.35;20.33;;;;;;;;;;5029500;28;20056;-55
2022/01/26 17:26:22;;;;;;;83.82;22.25;;;;;;;;;;5032755;28;20032;-49
2022/01/26 18:07:15;;;;;;;82.35;22.55;;;;;;;;;;5001215;28;20042;-50
2022/01/26 18:17:46;;;;;;;89.97;23.75;;;;;;;;;;5031449;28;20048;-48
2022/01/26 18:26:07;;;;;;;93.38;23.85;;;;;;;;;;5027332;28;20053;-49
2022/01/26 18:49:38;;;;;;;85.30;22.42;;;;;;;;;;5024269;28;20377;-51
2022/01/26 18:52:05;;;;;;;84.28;24.65;;;;;;;;;;5031273;28;20025;-51
2022/01/26 18:54:32;;;;;;;90.60;24.05;;;;;;;;;;5020568;28;20030;-50
2022/01/26 18:56:59;;;;;;;86.35;23.98;;;;;;;;;;5027895;28;20105;-50
2022/01/26 18:59:26;;;;;;;86.32;22.08;;;;;;;;;;5026517;28;20030;-53
2022/01/26 19:01:53;;;;;;;83.65;21.42;;;;;;;;;;5022588;28;20120;-49
2022/01/26 19:04:26;;;;;;;86.63;22.80;;;;;;;;;;5032102;28;20026;-48
2022/01/26 19:06:53;;;;;;;58.95;15.50;;;;;;;;;;5026280;28;20025;-50
2022/01/26 19:09:23;;;;;;;86.70;22.33;;;;;;;;;;5030704;28;20041;-52
2022/01/26 19:11:49;;;;;;;76.00;19.15;;;;;;;;;;5032768;28;20053;-47
2022/01/26 19:14:15;;;;;;;85.72;22.27;;;;;;;;;;5028340;28;20041;-52
2022/01/26 19:16:54;;;;;;;87.50;20.90;;;;;;;;;;5017970;28;20041;-48
2022/01/26 19:19:33;;;;;;;80.93;21.45;;;;;;;;;;5022120;28;20105;-49
2022/01/26 19:27:26;;;;;;;80.20;20.50;;;;;;;;;;5019007;28;20040;-50
2022/01/26 19:30:11;;;;;;;82.35;20.63;;;;;;;;;;5028629;28;20033;-50
2022/01/26 19:32:52;;;;;;;81.30;21.58;;;;;;;;;;5025260;28;20072;-51
2022/01/26 19:46:48;;;;;;;83.45;20.23;;;;;;;;;;5032248;28;20181;-50
2022/01/26 19:54:26;;;;;;;74.78;20.40;;;;;;;;;;5024371;28;20079;-48
2022/01/26 19:56:52;;;;;;;72.35;20.27;;;;;;;;;;5018299;28;20541;-49
2022/01/26 19:59:18;;;;;;;74.57;20.75;;;;;;;;;;5020458;28;20029;-51
2022/01/26 20:01:44;;;;;;;63.53;19.13;;;;;;;;;;5022222;28;20047;-51
2022/01/26 20:04:10;;;;;;;74.15;20.00;;;;;;;;;;5025366;28;20023;-48
2022/01/26 20:06:37;;;;;;;72.70;19.08;;;;;;;;;;5022032;28;20065;-49
2022/01/26 20:12:00;;;;;;;73.28;20.63;;;;;;;;;;5024375;28;20037;-47
2022/01/26 20:14:32;;;;;;;65.25;18.55;;;;;;;;;;5032018;28;20902;-48
2022/01/26 20:17:06;;;;;;;73.40;20.17;;;;;;;;;;5027428;28;20026;-48
2022/01/26 20:19:32;;;;;;;63.25;19.25;;;;;;;;;;5024694;28;20022;-49
2022/01/26 20:21:58;;;;;;;72.80;19.45;;;;;;;;;;5019784;28;20029;-49
2022/01/26 20:24:25;;;;;;;71.32;17.80;;;;;;;;;;5023170;28;20018;-48
2022/01/26 20:26:52;;;;;;;66.60;18.83;;;;;;;;;;5024619;28;20030;-48
2022/01/26 20:29:21;;;;;;;57.42;17.30;;;;;;;;;;5017674;28;20054;-51
2022/01/26 20:31:47;;;;;;;62.80;17.67;;;;;;;;;;5028511;28;20646;-54
2022/01/26 20:34:15;;;;;;;59.10;16.83;;;;;;;;;;5029915;28;20041;-50
2022/01/26 20:36:41;;;;;;;61.70;16.02;;;;;;;;;;5020869;28;20050;-50
2022/01/26 20:39:07;;;;;;;62.97;18.05;;;;;;;;;;5021254;28;20477;-51
2022/01/26 20:41:33;;;;;;;54.42;16.05;;;;;;;;;;5019584;28;20033;-48
2022/01/26 20:43:59;;;;;;;53.97;17.00;;;;;;;;;;5029391;28;20025;-54
2022/01/26 20:46:25;;;;;;;58.75;17.50;;;;;;;;;;5027654;28;20087;-49
2022/01/26 20:48:51;;;;;;;63.28;17.95;;;;;;;;;;5030120;28;20030;-51
2022/01/26 20:51:17;;;;;;;64.65;16.65;;;;;;;;;;5015800;28;20088;-49
2022/01/26 20:53:44;;;;;;;57.25;15.75;;;;;;;;;;5025861;28;20120;-50
2022/01/26 20:56:10;;;;;;;56.10;16.30;;;;;;;;;;5024285;28;20029;-52